Edith Kirk — 2DST9 — position and weather

sailwx.info

Track history (hours):
 
Tides and Currents Weather Stations Pressure Air Temp Water Temp Dewpoint Dewpoint Depression Visibility Wind Speed Wind Dir Waves Ship Positions

Edith Kirk

Last reported at 2014-Aug-27 16:21 UTC. Time now 2014-Aug-28 11:26 UTC.
Position N 36°03' W 005°20'.

Length 183 m; draft 10.7 m.

Type: Tanker. MMSI: 235081745.

Date/timePositionNaut miles runAvg speedWind from/ knotsBaromVisibWave heightAir tempDewpointWater temp
2014-Aug-27 16:21N 36°03' W 005°20'21210.7
2014-Aug-26 20:33N 37°09' W 001°09'1412.5
2014-Aug-26 19:28N 37°18' W 000°56'1212.5
2014-Aug-26 18:32N 37°26' W 000°45'1212.1
2014-Aug-26 17:33N 37°34' W 000°34'1211.9
2014-Aug-26 16:34N 37°44' W 000°26'1211.8
2014-Aug-26 15:33N 37°53' W 000°17'1211.6
2014-Aug-26 14:33N 38°03' W 000°09'1211.7
2014-Aug-26 13:33N 38°13' W 000°01'1211.9
2014-Aug-26 12:33N 38°23' E 000°07'1212.2
2014-Aug-26 11:33N 38°33' E 000°15'2512.1
2014-Aug-26 09:29N 38°54' E 000°33'1312.0
2014-Aug-26 08:25N 39°04' E 000°43'2211.8
2014-Aug-26 06:32N 39°17' E 001°06'3611.4
2014-Aug-26 03:24N 39°37' E 001°45'8 9.7
2014-Aug-26 02:33N 39°42' E 001°53'1110.9
2014-Aug-26 01:33N 39°47' E 002°05'1111.0
2014-Aug-26 00:33N 39°53' E 002°17'1111.3
2014-Aug-25 23:33N 39°60' E 002°30'1211.6
2014-Aug-25 22:33N 40°06' E 002°42'1211.9
2014-Aug-25 21:33N 40°13' E 002°55'1211.5
2014-Aug-25 20:33N 40°19' E 003°08'2511.5
2014-Aug-25 18:23N 40°32' E 003°35'2511.4
2014-Aug-25 16:10N 40°46' E 004°04'7811.7
2014-Aug-25 09:31N 41°28' E 005°31'1212.0
2014-Aug-25 08:33N 41°31' E 005°45'1211.9
2014-Aug-25 07:33N 41°41' E 005°55'1313.3
2014-Aug-25 06:33N 41°48' E 006°10'1211.8
2014-Aug-25 05:33N 41°55' E 006°23'1111.5
2014-Aug-25 04:33N 42°01' E 006°36'1211.3
2014-Aug-25 03:32N 42°07' E 006°49'1111.1
2014-Aug-25 02:31N 42°13' E 007°02'1211.1
2014-Aug-25 01:24N 42°20' E 007°16'1010.8
2014-Aug-25 00:31N 42°25' E 007°27'1410.9
2014-Aug-24 23:14N 42°33' E 007°42'810.9
2014-Aug-24 22:28N 42°37' E 007°52'1011.0
2014-Aug-24 21:33N 42°43' E 008°03'2310.6
2014-Aug-24 19:23N 42°56' E 008°30'4310.7
2014-Aug-24 15:22N 43°19' E 009°19'911.4
2014-Aug-24 14:33N 43°24' E 009°30'1110.8
2014-Aug-24 13:33N 43°30' E 009°42'1010.1
2014-Aug-24 12:33N 43°31' E 009°56'1010.5
2014-Aug-24 11:33N 43°30' E 010°11'6 6.0
2014-Aug-24 10:32N 43°34' E 010°18'0 0.0
2014-Aug-24 09:32N 43°34' E 010°18'0 0.0
2014-Aug-24 08:29N 43°34' E 010°18'0 0.0
2014-Aug-24 07:32N 43°34' E 010°18'0 0.0
2014-Aug-24 06:32N 43°34' E 010°18'0 0.0
2014-Aug-24 05:32N 43°34' E 010°18'0 0.0
2014-Aug-24 04:32N 43°34' E 010°18'0 0.0
2014-Aug-24 03:32N 43°34' E 010°18'0 0.0
2014-Aug-24 02:32N 43°34' E 010°18'0 0.0
2014-Aug-24 01:32N 43°34' E 010°18'0 0.0
2014-Aug-24 00:32N 43°34' E 010°18'0 0.0
2014-Aug-23 23:32N 43°34' E 010°18'0 0.0
2014-Aug-23 22:32N 43°34' E 010°18'0 0.0
2014-Aug-23 21:32N 43°34' E 010°18'0 0.0
2014-Aug-23 20:32N 43°34' E 010°18'0 0.0
2014-Aug-23 19:32N 43°34' E 010°18'0 0.0
2014-Aug-23 03:32N 43°34' E 010°18'0 0.0
2014-Aug-23 02:32N 43°34' E 010°18'0 0.0
2014-Aug-23 01:32N 43°34' E 010°18'0 0.0
2014-Aug-23 00:29N 43°34' E 010°18'0 0.0
2014-Aug-22 23:32N 43°34' E 010°18'0 0.0
2014-Aug-22 22:32N 43°34' E 010°18'0 0.0
2014-Aug-22 21:32N 43°34' E 010°18'0 0.0
2014-Aug-22 20:32N 43°34' E 010°18'0 0.0
2014-Aug-22 19:32N 43°34' E 010°18'0 0.0
2014-Aug-22 18:32N 43°34' E 010°18'0 0.0
2014-Aug-22 17:32N 43°34' E 010°18'0 0.0
2014-Aug-22 16:32N 43°34' E 010°18'0 0.0
2014-Aug-22 15:32N 43°34' E 010°18'0 0.0
2014-Aug-22 14:32N 43°34' E 010°18'0 0.0
2014-Aug-22 13:29N 43°34' E 010°18'0 0.0
2014-Aug-22 12:29N 43°34' E 010°18'0 0.0
2014-Aug-22 11:32N 43°34' E 010°18'0 0.0
2014-Aug-22 10:32N 43°34' E 010°18'0 0.0
2014-Aug-22 09:32N 43°34' E 010°18'1 1.1
2014-Aug-22 08:34N 43°33' E 010°17'2 2.4
2014-Aug-22 07:31N 43°30' E 010°17'0 0.0
2014-Aug-22 06:31N 43°30' E 010°17'0 0.0
2014-Aug-22 05:31N 43°30' E 010°17'0 0.0
2014-Aug-22 04:28N 43°30' E 010°17'0 0.0
2014-Aug-22 03:31N 43°30' E 010°17'0 0.0
2014-Aug-22 02:31N 43°30' E 010°17'0 0.0
2014-Aug-22 01:31N 43°30' E 010°17'0 0.0
2014-Aug-22 00:31N 43°30' E 010°17'0 0.0
2014-Aug-21 23:31N 43°30' E 010°17'0 0.0
2014-Aug-21 22:31N 43°30' E 010°17'0 0.0
2014-Aug-21 21:31N 43°30' E 010°17'0 0.0
2014-Aug-21 20:31N 43°30' E 010°17'0 0.0
2014-Aug-21 19:31N 43°30' E 010°17'0 0.0
2014-Aug-21 18:34N 43°30' E 010°17'0 0.0
2014-Aug-21 17:30N 43°30' E 010°17'0 0.0
2014-Aug-21 16:31N 43°30' E 010°17'0 0.0
2014-Aug-21 15:31N 43°30' E 010°17'0 0.0
2014-Aug-21 14:31N 43°30' E 010°17'0 0.0
2014-Aug-21 13:31N 43°30' E 010°17'0 0.0
2014-Aug-21 12:22N 43°30' E 010°17'0 0.0
2014-Aug-21 11:31N 43°30' E 010°17'0 0.0
2014-Aug-21 10:34N 43°30' E 010°17'0 0.0
2014-Aug-21 09:34N 43°30' E 010°17'0 0.0
2014-Aug-21 08:31N 43°30' E 010°17'0 0.0
2014-Aug-21 07:30N 43°30' E 010°17'0 0.0
2014-Aug-21 06:31N 43°30' E 010°17'0 0.0
2014-Aug-21 05:33N 43°30' E 010°17'0 0.0
2014-Aug-21 04:31N 43°30' E 010°17'0 0.0
2014-Aug-21 03:33N 43°30' E 010°17'0 0.0
2014-Aug-21 02:33N 43°30' E 010°17'0 0.0
2014-Aug-21 01:28N 43°30' E 010°17'0 0.0
2014-Aug-21 00:34N 43°30' E 010°17'0 0.0
2014-Aug-20 23:34N 43°30' E 010°17'0 0.0
2014-Aug-20 22:30N 43°30' E 010°17'0 0.0
2014-Aug-20 21:33N 43°30' E 010°17'0 0.0
2014-Aug-20 20:33N 43°30' E 010°17'0 0.0
2014-Aug-20 19:33N 43°30' E 010°17'0 0.0
2014-Aug-20 18:33N 43°30' E 010°17'0 0.0
2014-Aug-20 17:31N 43°30' E 010°17'0 0.0
2014-Aug-20 16:33N 43°30' E 010°17'0 0.0
2014-Aug-20 15:33N 43°30' E 010°17'0 0.0
2014-Aug-20 14:33N 43°30' E 010°17'0 0.0
2014-Aug-20 13:33N 43°30' E 010°17'0 0.0
2014-Aug-20 12:33N 43°30' E 010°17'0 0.0
2014-Aug-20 11:33N 43°30' E 010°17'0 0.0
2014-Aug-20 10:33N 43°30' E 010°17'0 0.0
2014-Aug-20 09:33N 43°30' E 010°17'0 0.0
2014-Aug-20 08:33N 43°30' E 010°17'0 0.0
2014-Aug-20 07:30N 43°30' E 010°17'0 0.0
2014-Aug-20 06:33N 43°30' E 010°17'0 0.0
2014-Aug-20 05:30N 43°30' E 010°17'0 0.0
2014-Aug-20 04:33N 43°30' E 010°17'0 0.0
2014-Aug-20 03:33N 43°30' E 010°17'0 0.0
2014-Aug-20 02:30N 43°30' E 010°17'0 0.0
2014-Aug-20 01:33N 43°30' E 010°17'0 0.0
2014-Aug-20 00:33N 43°30' E 010°17'0 0.0
2014-Aug-19 23:33N 43°30' E 010°17'0 0.0
2014-Aug-19 22:33N 43°30' E 010°17'0 0.0
2014-Aug-19 21:27N 43°30' E 010°17'0 0.0
2014-Aug-19 20:27N 43°30' E 010°17'0 0.0
2014-Aug-19 19:33N 43°30' E 010°17'0 0.0
2014-Aug-19 18:33N 43°30' E 010°17'0 0.0
2014-Aug-19 17:30N 43°30' E 010°17'0 0.0
2014-Aug-19 16:33N 43°30' E 010°17'0 0.0
2014-Aug-19 15:33N 43°30' E 010°17'0 0.0
2014-Aug-19 14:33N 43°30' E 010°17'0 0.0
2014-Aug-19 13:33N 43°30' E 010°17'0 0.0
2014-Aug-19 12:33N 43°30' E 010°17'0 0.0
2014-Aug-19 11:33N 43°30' E 010°17'0 0.0
2014-Aug-19 10:33N 43°30' E 010°17'0 0.0
2014-Aug-19 09:33N 43°30' E 010°17'0 0.0
2014-Aug-19 08:27N 43°30' E 010°17'0 0.0
2014-Aug-19 07:33N 43°30' E 010°17'0 0.0
2014-Aug-19 06:30N 43°30' E 010°17'0 0.0
2014-Aug-19 05:33N 43°30' E 010°17'0 0.0
2014-Aug-19 04:33N 43°30' E 010°17'0 0.0
2014-Aug-19 03:33N 43°30' E 010°17'0 0.0
2014-Aug-19 02:33N 43°30' E 010°17'0 0.0
2014-Aug-19 01:33N 43°30' E 010°17'0 0.0
2014-Aug-19 00:33N 43°30' E 010°17'0 0.0
2014-Aug-18 23:33N 43°30' E 010°17'0 0.1
2014-Aug-18 22:33N 43°30' E 010°17'0 0.1
2014-Aug-18 21:33N 43°30' E 010°17'0 0.0
2014-Aug-18 20:33N 43°30' E 010°17'0 0.0
2014-Aug-18 19:33N 43°30' E 010°17'0 0.0
2014-Aug-18 18:33N 43°30' E 010°17'0 0.0
2014-Aug-18 17:33N 43°30' E 010°17'0 0.0
2014-Aug-18 16:33N 43°30' E 010°17'0 0.0
2014-Aug-18 15:33N 43°30' E 010°17'0 0.0
2014-Aug-18 14:33N 43°30' E 010°17'0 0.0
2014-Aug-18 13:33N 43°30' E 010°17'0 0.0
2014-Aug-18 12:33N 43°30' E 010°17'0 0.0
2014-Aug-18 11:33N 43°30' E 010°17'0 0.0
2014-Aug-18 10:33N 43°30' E 010°17'0 0.0
2014-Aug-18 09:30N 43°30' E 010°17'0 0.0
2014-Aug-18 08:33N 43°30' E 010°17'0 0.1
2014-Aug-18 07:30N 43°30' E 010°17'0 0.1
2014-Aug-18 06:33N 43°30' E 010°17'0 0.0
2014-Aug-18 05:30N 43°30' E 010°17'0 0.1
2014-Aug-18 04:33N 43°30' E 010°17'0 0.1
2014-Aug-18 03:33N 43°30' E 010°17'0 0.1
2014-Aug-18 02:33N 43°30' E 010°17'0 0.1
2014-Aug-18 01:33N 43°30' E 010°17'0 0.0
2014-Aug-18 00:30N 43°30' E 010°17'0 0.0
2014-Aug-17 18:33N 43°30' E 010°17'0 0.0
2014-Aug-17 17:33N 43°30' E 010°17'0 0.0
2014-Aug-17 16:33N 43°30' E 010°17'  
Track history (hours):
 
Tides and Currents Weather Stations Pressure Air Temp Water Temp Dewpoint Dewpoint Depression Visibility Wind Speed Wind Dir Waves Ship Positions

Edith Kirk

Last reported at 2014-Aug-27 16:21 UTC. Time now 2014-Aug-28 11:26 UTC.
Position N 36°03' W 005°20'.

Length 183 m; draft 10.7 m.

Type: Tanker. MMSI: 235081745.

Date/timePositionNaut miles runAvg speedWind from/ knotsBaromVisibWave heightAir tempDewpointWater temp
2014-Aug-27 16:21N 36°03' W 005°20'21210.7
2014-Aug-26 20:33N 37°09' W 001°09'1412.5
2014-Aug-26 19:28N 37°18' W 000°56'1212.5
2014-Aug-26 18:32N 37°26' W 000°45'1212.1
2014-Aug-26 17:33N 37°34' W 000°34'1211.9
2014-Aug-26 16:34N 37°44' W 000°26'1211.8
2014-Aug-26 15:33N 37°53' W 000°17'1211.6
2014-Aug-26 14:33N 38°03' W 000°09'1211.7
2014-Aug-26 13:33N 38°13' W 000°01'1211.9
2014-Aug-26 12:33N 38°23' E 000°07'1212.2
2014-Aug-26 11:33N 38°33' E 000°15'2512.1
2014-Aug-26 09:29N 38°54' E 000°33'1312.0
2014-Aug-26 08:25N 39°04' E 000°43'2211.8
2014-Aug-26 06:32N 39°17' E 001°06'3611.4
2014-Aug-26 03:24N 39°37' E 001°45'8 9.7
2014-Aug-26 02:33N 39°42' E 001°53'1110.9
2014-Aug-26 01:33N 39°47' E 002°05'1111.0
2014-Aug-26 00:33N 39°53' E 002°17'1111.3
2014-Aug-25 23:33N 39°60' E 002°30'1211.6
2014-Aug-25 22:33N 40°06' E 002°42'1211.9
2014-Aug-25 21:33N 40°13' E 002°55'1211.5
2014-Aug-25 20:33N 40°19' E 003°08'2511.5
2014-Aug-25 18:23N 40°32' E 003°35'2511.4
2014-Aug-25 16:10N 40°46' E 004°04'7811.7
2014-Aug-25 09:31N 41°28' E 005°31'1212.0
2014-Aug-25 08:33N 41°31' E 005°45'1211.9
2014-Aug-25 07:33N 41°41' E 005°55'1313.3
2014-Aug-25 06:33N 41°48' E 006°10'1211.8
2014-Aug-25 05:33N 41°55' E 006°23'1111.5
2014-Aug-25 04:33N 42°01' E 006°36'1211.3
2014-Aug-25 03:32N 42°07' E 006°49'1111.1
2014-Aug-25 02:31N 42°13' E 007°02'1211.1
2014-Aug-25 01:24N 42°20' E 007°16'1010.8
2014-Aug-25 00:31N 42°25' E 007°27'1410.9
2014-Aug-24 23:14N 42°33' E 007°42'810.9
2014-Aug-24 22:28N 42°37' E 007°52'1011.0
2014-Aug-24 21:33N 42°43' E 008°03'2310.6
2014-Aug-24 19:23N 42°56' E 008°30'4310.7
2014-Aug-24 15:22N 43°19' E 009°19'911.4
2014-Aug-24 14:33N 43°24' E 009°30'1110.8
2014-Aug-24 13:33N 43°30' E 009°42'1010.1
2014-Aug-24 12:33N 43°31' E 009°56'1010.5
2014-Aug-24 11:33N 43°30' E 010°11'6 6.0
2014-Aug-24 10:32N 43°34' E 010°18'0 0.0
2014-Aug-24 09:32N 43°34' E 010°18'0 0.0
2014-Aug-24 08:29N 43°34' E 010°18'0 0.0
2014-Aug-24 07:32N 43°34' E 010°18'0 0.0
2014-Aug-24 06:32N 43°34' E 010°18'0 0.0
2014-Aug-24 05:32N 43°34' E 010°18'0 0.0
2014-Aug-24 04:32N 43°34' E 010°18'0 0.0
2014-Aug-24 03:32N 43°34' E 010°18'0 0.0
2014-Aug-24 02:32N 43°34' E 010°18'0 0.0
2014-Aug-24 01:32N 43°34' E 010°18'0 0.0
2014-Aug-24 00:32N 43°34' E 010°18'0 0.0
2014-Aug-23 23:32N 43°34' E 010°18'0 0.0
2014-Aug-23 22:32N 43°34' E 010°18'0 0.0
2014-Aug-23 21:32N 43°34' E 010°18'0 0.0
2014-Aug-23 20:32N 43°34' E 010°18'0 0.0
2014-Aug-23 19:32N 43°34' E 010°18'0 0.0
2014-Aug-23 03:32N 43°34' E 010°18'0 0.0
2014-Aug-23 02:32N 43°34' E 010°18'0 0.0
2014-Aug-23 01:32N 43°34' E 010°18'0 0.0
2014-Aug-23 00:29N 43°34' E 010°18'0 0.0
2014-Aug-22 23:32N 43°34' E 010°18'0 0.0
2014-Aug-22 22:32N 43°34' E 010°18'0 0.0
2014-Aug-22 21:32N 43°34' E 010°18'0 0.0
2014-Aug-22 20:32N 43°34' E 010°18'0 0.0
2014-Aug-22 19:32N 43°34' E 010°18'0 0.0
2014-Aug-22 18:32N 43°34' E 010°18'0 0.0
2014-Aug-22 17:32N 43°34' E 010°18'0 0.0
2014-Aug-22 16:32N 43°34' E 010°18'0 0.0
2014-Aug-22 15:32N 43°34' E 010°18'0 0.0
2014-Aug-22 14:32N 43°34' E 010°18'0 0.0
2014-Aug-22 13:29N 43°34' E 010°18'0 0.0
2014-Aug-22 12:29N 43°34' E 010°18'0 0.0
2014-Aug-22 11:32N 43°34' E 010°18'0 0.0
2014-Aug-22 10:32N 43°34' E 010°18'0 0.0
2014-Aug-22 09:32N 43°34' E 010°18'1 1.1
2014-Aug-22 08:34N 43°33' E 010°17'2 2.4
2014-Aug-22 07:31N 43°30' E 010°17'0 0.0
2014-Aug-22 06:31N 43°30' E 010°17'0 0.0
2014-Aug-22 05:31N 43°30' E 010°17'0 0.0
2014-Aug-22 04:28N 43°30' E 010°17'0 0.0
2014-Aug-22 03:31N 43°30' E 010°17'0 0.0
2014-Aug-22 02:31N 43°30' E 010°17'0 0.0
2014-Aug-22 01:31N 43°30' E 010°17'0 0.0
2014-Aug-22 00:31N 43°30' E 010°17'0 0.0
2014-Aug-21 23:31N 43°30' E 010°17'0 0.0
2014-Aug-21 22:31N 43°30' E 010°17'0 0.0
2014-Aug-21 21:31N 43°30' E 010°17'0 0.0
2014-Aug-21 20:31N 43°30' E 010°17'0 0.0
2014-Aug-21 19:31N 43°30' E 010°17'0 0.0
2014-Aug-21 18:34N 43°30' E 010°17'0 0.0
2014-Aug-21 17:30N 43°30' E 010°17'0 0.0
2014-Aug-21 16:31N 43°30' E 010°17'0 0.0
2014-Aug-21 15:31N 43°30' E 010°17'0 0.0
2014-Aug-21 14:31N 43°30' E 010°17'0 0.0
2014-Aug-21 13:31N 43°30' E 010°17'0 0.0
2014-Aug-21 12:22N 43°30' E 010°17'0 0.0
2014-Aug-21 11:31N 43°30' E 010°17'0 0.0
2014-Aug-21 10:34N 43°30' E 010°17'0 0.0
2014-Aug-21 09:34N 43°30' E 010°17'0 0.0
2014-Aug-21 08:31N 43°30' E 010°17'0 0.0
2014-Aug-21 07:30N 43°30' E 010°17'0 0.0
2014-Aug-21 06:31N 43°30' E 010°17'0 0.0
2014-Aug-21 05:33N 43°30' E 010°17'0 0.0
2014-Aug-21 04:31N 43°30' E 010°17'0 0.0
2014-Aug-21 03:33N 43°30' E 010°17'0 0.0
2014-Aug-21 02:33N 43°30' E 010°17'0 0.0
2014-Aug-21 01:28N 43°30' E 010°17'0 0.0
2014-Aug-21 00:34N 43°30' E 010°17'0 0.0
2014-Aug-20 23:34N 43°30' E 010°17'0 0.0
2014-Aug-20 22:30N 43°30' E 010°17'0 0.0
2014-Aug-20 21:33N 43°30' E 010°17'0 0.0
2014-Aug-20 20:33N 43°30' E 010°17'0 0.0
2014-Aug-20 19:33N 43°30' E 010°17'0 0.0
2014-Aug-20 18:33N 43°30' E 010°17'0 0.0
2014-Aug-20 17:31N 43°30' E 010°17'0 0.0
2014-Aug-20 16:33N 43°30' E 010°17'0 0.0
2014-Aug-20 15:33N 43°30' E 010°17'0 0.0
2014-Aug-20 14:33N 43°30' E 010°17'0 0.0
2014-Aug-20 13:33N 43°30' E 010°17'0 0.0
2014-Aug-20 12:33N 43°30' E 010°17'0 0.0
2014-Aug-20 11:33N 43°30' E 010°17'0 0.0
2014-Aug-20 10:33N 43°30' E 010°17'0 0.0
2014-Aug-20 09:33N 43°30' E 010°17'0 0.0
2014-Aug-20 08:33N 43°30' E 010°17'0 0.0
2014-Aug-20 07:30N 43°30' E 010°17'0 0.0
2014-Aug-20 06:33N 43°30' E 010°17'0 0.0
2014-Aug-20 05:30N 43°30' E 010°17'0 0.0
2014-Aug-20 04:33N 43°30' E 010°17'0 0.0
2014-Aug-20 03:33N 43°30' E 010°17'0 0.0
2014-Aug-20 02:30N 43°30' E 010°17'0 0.0
2014-Aug-20 01:33N 43°30' E 010°17'0 0.0
2014-Aug-20 00:33N 43°30' E 010°17'0 0.0
2014-Aug-19 23:33N 43°30' E 010°17'0 0.0
2014-Aug-19 22:33N 43°30' E 010°17'0 0.0
2014-Aug-19 21:27N 43°30' E 010°17'0 0.0
2014-Aug-19 20:27N 43°30' E 010°17'0 0.0
2014-Aug-19 19:33N 43°30' E 010°17'0 0.0
2014-Aug-19 18:33N 43°30' E 010°17'0 0.0
2014-Aug-19 17:30N 43°30' E 010°17'0 0.0
2014-Aug-19 16:33N 43°30' E 010°17'0 0.0
2014-Aug-19 15:33N 43°30' E 010°17'0 0.0
2014-Aug-19 14:33N 43°30' E 010°17'0 0.0
2014-Aug-19 13:33N 43°30' E 010°17'0 0.0
2014-Aug-19 12:33N 43°30' E 010°17'0 0.0
2014-Aug-19 11:33N 43°30' E 010°17'0 0.0
2014-Aug-19 10:33N 43°30' E 010°17'0 0.0
2014-Aug-19 09:33N 43°30' E 010°17'0 0.0
2014-Aug-19 08:27N 43°30' E 010°17'0 0.0
2014-Aug-19 07:33N 43°30' E 010°17'0 0.0
2014-Aug-19 06:30N 43°30' E 010°17'0 0.0
2014-Aug-19 05:33N 43°30' E 010°17'0 0.0
2014-Aug-19 04:33N 43°30' E 010°17'0 0.0
2014-Aug-19 03:33N 43°30' E 010°17'0 0.0
2014-Aug-19 02:33N 43°30' E 010°17'0 0.0
2014-Aug-19 01:33N 43°30' E 010°17'0 0.0
2014-Aug-19 00:33N 43°30' E 010°17'0 0.0
2014-Aug-18 23:33N 43°30' E 010°17'0 0.1
2014-Aug-18 22:33N 43°30' E 010°17'0 0.1
2014-Aug-18 21:33N 43°30' E 010°17'0 0.0
2014-Aug-18 20:33N 43°30' E 010°17'0 0.0
2014-Aug-18 19:33N 43°30' E 010°17'0 0.0
2014-Aug-18 18:33N 43°30' E 010°17'0 0.0
2014-Aug-18 17:33N 43°30' E 010°17'0 0.0
2014-Aug-18 16:33N 43°30' E 010°17'0 0.0
2014-Aug-18 15:33N 43°30' E 010°17'0 0.0
2014-Aug-18 14:33N 43°30' E 010°17'0 0.0
2014-Aug-18 13:33N 43°30' E 010°17'0 0.0
2014-Aug-18 12:33N 43°30' E 010°17'0 0.0
2014-Aug-18 11:33N 43°30' E 010°17'0 0.0
2014-Aug-18 10:33N 43°30' E 010°17'0 0.0
2014-Aug-18 09:30N 43°30' E 010°17'0 0.0
2014-Aug-18 08:33N 43°30' E 010°17'0 0.1
2014-Aug-18 07:30N 43°30' E 010°17'0 0.1
2014-Aug-18 06:33N 43°30' E 010°17'0 0.0
2014-Aug-18 05:30N 43°30' E 010°17'0 0.1
2014-Aug-18 04:33N 43°30' E 010°17'0 0.1
2014-Aug-18 03:33N 43°30' E 010°17'0 0.1
2014-Aug-18 02:33N 43°30' E 010°17'0 0.1
2014-Aug-18 01:33N 43°30' E 010°17'0 0.0
2014-Aug-18 00:30N 43°30' E 010°17'0 0.0
2014-Aug-17 18:33N 43°30' E 010°17'0 0.0
2014-Aug-17 17:33N 43°30' E 010°17'0 0.0
2014-Aug-17 16:33N 43°30' E 010°17'  

Dump ship's entire track history